Time;durP1;ratioP1;P1;durP2;ratioP2;P2;SDS_P1;SDS_P2;PMS_P1;PMS_P2;Temp;Humidity;BMP_temperature;BMP_pressure;BME280_temperature;BME280_humidity;BME280_pressure;Samples;Min_cycle;Max_cycle;Signal;HPM_P1;HPM_P2
2023/12/28 06:00:59;;;;;;;12.30;6.10;;;;;;;;;;5774440;23;20498;-73
2023/12/28 06:03:28;;;;;;;16.33;5.60;;;;;;;;;;4997388;28;20411;-76
2023/12/28 06:05:54;;;;;;;11.03;6.10;;;;;;;;;;5008031;28;20417;-76
2023/12/28 06:08:20;;;;;;;8.93;5.27;;;;;;;;;;4996608;28;20810;-76
2023/12/28 06:10:46;;;;;;;14.50;6.40;;;;;;;;;;4996401;28;20450;-76
2023/12/28 06:13:11;;;;;;;12.97;6.00;;;;;;;;;;5011335;28;20480;-76
2023/12/28 06:15:37;;;;;;;6.70;5.03;;;;;;;;;;5018748;23;20560;-72
2023/12/28 06:18:04;;;;;;;11.63;5.60;;;;;;;;;;4998356;28;20812;-71
2023/12/28 06:20:30;;;;;;;9.37;5.47;;;;;;;;;;4999428;28;20413;-72
2023/12/28 06:22:56;;;;;;;10.40;5.80;;;;;;;;;;4998394;28;20407;-72
2023/12/28 06:25:22;;;;;;;14.57;7.20;;;;;;;;;;4999199;28;20431;-72
2023/12/28 06:27:48;;;;;;;9.50;5.67;;;;;;;;;;4997639;28;20418;-71
2023/12/28 06:30:14;;;;;;;8.23;5.60;;;;;;;;;;5000067;28;20466;-71
2023/12/28 06:32:40;;;;;;;11.40;6.50;;;;;;;;;;4998481;28;20407;-72
2023/12/28 06:35:06;;;;;;;14.40;6.30;;;;;;;;;;5011206;28;20501;-71
2023/12/28 06:37:32;;;;;;;12.47;5.80;;;;;;;;;;4995843;28;20469;-70
2023/12/28 06:39:58;;;;;;;8.83;4.83;;;;;;;;;;4995805;28;20776;-72
2023/12/28 06:42:24;;;;;;;9.33;5.60;;;;;;;;;;4995460;28;20875;-72
2023/12/28 06:44:50;;;;;;;7.40;5.57;;;;;;;;;;4995569;28;20470;-71
2023/12/28 06:47:16;;;;;;;12.23;5.93;;;;;;;;;;4995885;28;20426;-71
2023/12/28 06:49:42;;;;;;;10.53;6.00;;;;;;;;;;4995492;28;20462;-73
2023/12/28 06:52:08;;;;;;;9.90;5.50;;;;;;;;;;4995442;28;20407;-72
2023/12/28 06:54:34;;;;;;;13.33;6.07;;;;;;;;;;4997652;28;20490;-71
2023/12/28 06:57:01;;;;;;;14.57;6.10;;;;;;;;;;5004669;28;20407;-72
2023/12/28 06:59:26;;;;;;;12.40;5.40;;;;;;;;;;4996323;28;20419;-71
2023/12/28 07:01:52;;;;;;;10.50;6.27;;;;;;;;;;4995118;28;20422;-73
2023/12/28 07:04:18;;;;;;;10.03;5.60;;;;;;;;;;4995314;28;20462;-72
2023/12/28 07:06:44;;;;;;;9.83;5.33;;;;;;;;;;4995376;28;20422;-71
2023/12/28 07:09:10;;;;;;;7.30;5.20;;;;;;;;;;4995239;28;20466;-71
2023/12/28 07:11:36;;;;;;;13.13;6.13;;;;;;;;;;4995281;28;20443;-71
2023/12/28 07:14:02;;;;;;;9.47;6.20;;;;;;;;;;4994891;28;20414;-71
2023/12/28 07:16:28;;;;;;;11.53;6.03;;;;;;;;;;4995165;28;20403;-72
2023/12/28 07:18:54;;;;;;;10.53;5.50;;;;;;;;;;4995202;28;20476;-70
2023/12/28 07:21:20;;;;;;;8.00;5.13;;;;;;;;;;5010279;28;20419;-71
2023/12/28 07:23:49;;;;;;;10.47;6.17;;;;;;;;;;4995109;28;20419;-71
2023/12/28 07:26:15;;;;;;;13.60;6.00;;;;;;;;;;4995116;28;20426;-72
2023/12/28 07:28:43;;;;;;;14.03;5.40;;;;;;;;;;5010126;28;20509;-72
2023/12/28 07:31:09;;;;;;;7.90;5.20;;;;;;;;;;4994989;28;20461;-72
2023/12/28 07:33:35;;;;;;;12.57;6.10;;;;;;;;;;4995014;28;20411;-72
2023/12/28 07:36:02;;;;;;;15.23;5.97;;;;;;;;;;5009975;28;20497;-72
2023/12/28 07:38:28;;;;;;;12.17;6.47;;;;;;;;;;4994924;28;20761;-71
2023/12/28 07:40:54;;;;;;;15.23;7.53;;;;;;;;;;4995236;28;20420;-71
2023/12/28 07:43:20;;;;;;;9.33;5.77;;;;;;;;;;4994816;28;20417;-73
2023/12/28 07:45:46;;;;;;;9.97;5.27;;;;;;;;;;4994626;28;20438;-71
2023/12/28 07:48:12;;;;;;;9.63;5.33;;;;;;;;;;4994466;28;20449;-72
2023/12/28 07:50:38;;;;;;;6.80;4.87;;;;;;;;;;4994363;28;20469;-72
2023/12/28 07:53:04;;;;;;;12.90;5.80;;;;;;;;;;4994604;28;20755;-72
2023/12/28 07:55:30;;;;;;;9.17;5.17;;;;;;;;;;4994748;28;20450;-72
2023/12/28 07:57:56;;;;;;;9.80;4.83;;;;;;;;;;4994624;28;20407;-73
2023/12/28 08:00:22;;;;;;;11.43;5.50;;;;;;;;;;4994352;28;20988;-72
2023/12/28 08:02:48;;;;;;;9.27;5.00;;;;;;;;;;4994348;28;20901;-73
2023/12/28 08:05:14;;;;;;;8.97;5.50;;;;;;;;;;4994432;28;20437;-76
2023/12/28 08:07:40;;;;;;;14.93;6.63;;;;;;;;;;4994654;28;20869;-73
2023/12/28 08:10:06;;;;;;;10.73;6.50;;;;;;;;;;4994306;28;20473;-71
2023/12/28 08:12:32;;;;;;;12.30;5.07;;;;;;;;;;5009320;28;20474;-71
2023/12/28 08:14:59;;;;;;;10.97;5.60;;;;;;;;;;4993359;28;20455;-71
2023/12/28 08:17:25;;;;;;;13.40;5.63;;;;;;;;;;4994377;28;20474;-71
2023/12/28 08:19:51;;;;;;;10.07;5.60;;;;;;;;;;4994269;28;20419;-70
2023/12/28 08:22:18;;;;;;;21.67;7.23;;;;;;;;;;4994028;28;20411;-73
2023/12/28 08:24:44;;;;;;;12.73;5.70;;;;;;;;;;5009220;28;20472;-71
2023/12/28 08:27:10;;;;;;;14.17;5.63;;;;;;;;;;4994530;28;20415;-72
2023/12/28 08:29:36;;;;;;;12.73;5.67;;;;;;;;;;4995344;28;20471;-71
2023/12/28 08:32:02;;;;;;;9.43;5.97;;;;;;;;;;4993924;28;20561;-71
2023/12/28 08:34:28;;;;;;;15.80;6.13;;;;;;;;;;4994074;28;20444;-71
2023/12/28 08:36:54;;;;;;;13.77;6.30;;;;;;;;;;4994088;28;20410;-73
2023/12/28 08:39:20;;;;;;;14.33;6.30;;;;;;;;;;4993685;28;20434;-71
2023/12/28 08:41:46;;;;;;;10.43;5.50;;;;;;;;;;4993772;28;20747;-73
2023/12/28 08:44:12;;;;;;;11.83;6.20;;;;;;;;;;4993598;28;20423;-72
2023/12/28 08:46:38;;;;;;;13.17;6.00;;;;;;;;;;4993915;28;20411;-71
2023/12/28 08:49:04;;;;;;;13.50;5.17;;;;;;;;;;4993371;28;20462;-72
2023/12/28 08:51:30;;;;;;;10.27;5.63;;;;;;;;;;5008652;28;20407;-71
2023/12/28 08:53:56;;;;;;;15.60;6.13;;;;;;;;;;4993720;28;20407;-70
2023/12/28 08:56:22;;;;;;;13.97;6.87;;;;;;;;;;4995200;28;20886;-73
2023/12/28 08:58:48;;;;;;;11.57;5.80;;;;;;;;;;4995037;28;20414;-71
2023/12/28 09:01:18;;;;;;;16.90;5.63;;;;;;;;;;4994154;28;20415;-71
2023/12/28 09:03:44;;;;;;;17.63;5.97;;;;;;;;;;4994191;28;20443;-71
2023/12/28 09:06:10;;;;;;;12.40;6.67;;;;;;;;;;4994017;28;20411;-71
2023/12/28 09:08:36;;;;;;;16.87;7.43;;;;;;;;;;4994101;28;20462;-71
2023/12/28 09:11:02;;;;;;;13.47;6.10;;;;;;;;;;4994149;28;20498;-71
2023/12/28 09:13:28;;;;;;;9.10;5.60;;;;;;;;;;4993552;28;20450;-73
2023/12/28 09:15:54;;;;;;;14.93;5.67;;;;;;;;;;4993197;28;20473;-72
2023/12/28 09:18:21;;;;;;;14.43;6.37;;;;;;;;;;4994016;28;20411;-72
2023/12/28 09:20:48;;;;;;;21.70;8.07;;;;;;;;;;5009204;28;20954;-72
2023/12/28 09:23:14;;;;;;;14.97;6.10;;;;;;;;;;5009366;28;20566;-73
2023/12/28 09:25:41;;;;;;;11.77;6.37;;;;;;;;;;4994739;28;20474;-72
2023/12/28 09:28:06;;;;;;;11.90;5.90;;;;;;;;;;4993469;28;20415;-71
2023/12/28 09:30:32;;;;;;;10.03;5.57;;;;;;;;;;4994131;28;20501;-71
2023/12/28 09:32:58;;;;;;;7.77;5.60;;;;;;;;;;4993441;28;20415;-70
2023/12/28 09:35:25;;;;;;;8.10;4.90;;;;;;;;;;4993621;28;20463;-73
2023/12/28 09:37:51;;;;;;;12.87;5.60;;;;;;;;;;4993928;28;20442;-73
2023/12/28 09:40:17;;;;;;;10.53;5.20;;;;;;;;;;4993687;28;20411;-71
2023/12/28 09:43:01;;;;;;;10.93;5.83;;;;;;;;;;4993523;28;20846;-73
2023/12/28 09:45:27;;;;;;;11.63;6.00;;;;;;;;;;5008065;28;20537;-72
2023/12/28 09:47:53;;;;;;;9.97;5.30;;;;;;;;;;5008665;28;20454;-72
2023/12/28 09:50:19;;;;;;;14.67;6.70;;;;;;;;;;4993308;28;20470;-71
2023/12/28 09:52:45;;;;;;;12.87;8.07;;;;;;;;;;5007879;28;20502;-72
2023/12/28 09:55:11;;;;;;;18.43;7.40;;;;;;;;;;5008562;28;20801;-72
2023/12/28 09:57:38;;;;;;;14.27;6.00;;;;;;;;;;4993508;28;20814;-73
2023/12/28 10:00:06;;;;;;;17.70;7.20;;;;;;;;;;4992932;28;20898;-71
2023/12/28 10:02:32;;;;;;;11.47;6.17;;;;;;;;;;4993337;28;20501;-72
2023/12/28 10:04:58;;;;;;;12.50;5.70;;;;;;;;;;5008111;28;20443;-72
2023/12/28 10:07:26;;;;;;;13.30;5.97;;;;;;;;;;5013958;28;20882;-73
2023/12/28 10:09:52;;;;;;;11.53;6.30;;;;;;;;;;5000112;28;20462;-73
2023/12/28 10:12:18;;;;;;;11.83;5.67;;;;;;;;;;4995227;28;20417;-73
2023/12/28 10:14:44;;;;;;;23.17;6.17;;;;;;;;;;5012522;28;20527;-74
2023/12/28 10:17:10;;;;;;;14.50;6.63;;;;;;;;;;4998021;28;20419;-73
2023/12/28 10:19:37;;;;;;;16.30;6.13;;;;;;;;;;4998140;28;20415;-74
2023/12/28 10:22:03;;;;;;;12.00;6.30;;;;;;;;;;4997195;28;20945;-72
2023/12/28 10:24:29;;;;;;;14.03;6.80;;;;;;;;;;4995335;28;20826;-72
2023/12/28 10:26:55;;;;;;;16.47;7.40;;;;;;;;;;4995257;28;20526;-71
2023/12/28 10:29:21;;;;;;;15.90;6.80;;;;;;;;;;4995482;28;20830;-71
2023/12/28 10:31:50;;;;;;;21.97;6.90;;;;;;;;;;4992966;28;20411;-71
2023/12/28 10:34:16;;;;;;;11.20;5.90;;;;;;;;;;4995688;28;20451;-71
2023/12/28 10:36:42;;;;;;;17.20;6.07;;;;;;;;;;4996579;28;20407;-73
2023/12/28 10:39:12;;;;;;;15.90;6.27;;;;;;;;;;4998208;28;20427;-73
2023/12/28 10:41:40;;;;;;;12.23;5.97;;;;;;;;;;4998101;28;20489;-73
2023/12/28 10:44:06;;;;;;;20.60;7.90;;;;;;;;;;5012061;28;20473;-73
2023/12/28 10:46:33;;;;;;;19.03;6.73;;;;;;;;;;4997076;28;20829;-72
2023/12/28 10:49:05;;;;;;;11.80;6.47;;;;;;;;;;5002411;28;20454;-72
2023/12/28 10:51:31;;;;;;;10.20;6.10;;;;;;;;;;5004701;28;20945;-71
2023/12/28 10:54:06;;;;;;;13.40;5.80;;;;;;;;;;5005817;28;20407;-72
2023/12/28 10:56:44;;;;;;;16.70;7.70;;;;;;;;;;5007105;28;20837;-71
2023/12/28 10:59:17;;;;;;;13.40;6.80;;;;;;;;;;5017872;28;20426;-71
2023/12/28 11:01:45;;;;;;;11.73;6.33;;;;;;;;;;5000656;28;20426;-72
2023/12/28 11:04:17;;;;;;;12.83;5.10;;;;;;;;;;4997933;28;20437;-71
2023/12/28 11:06:43;;;;;;;13.70;5.77;;;;;;;;;;4996608;28;20413;-70
2023/12/28 11:09:10;;;;;;;13.63;6.63;;;;;;;;;;4996904;28;20951;-71
2023/12/28 11:11:37;;;;;;;11.10;5.40;;;;;;;;;;4997121;28;20411;-72
2023/12/28 11:14:03;;;;;;;12.77;7.10;;;;;;;;;;4996813;28;20918;-73
2023/12/28 11:16:30;;;;;;;13.10;7.03;;;;;;;;;;4996412;28;20494;-70
2023/12/28 11:18:56;;;;;;;16.97;6.87;;;;;;;;;;4996024;28;20419;-71
2023/12/28 11:21:22;;;;;;;16.37;7.00;;;;;;;;;;4995584;28;21021;-72
2023/12/28 11:23:49;;;;;;;11.67;6.37;;;;;;;;;;4995327;28;20783;-72
2023/12/28 11:26:19;;;;;;;7.67;5.13;;;;;;;;;;4995550;28;20419;-71
2023/12/28 11:28:45;;;;;;;28.73;6.17;;;;;;;;;;4995900;28;20927;-71
2023/12/28 11:31:11;;;;;;;18.03;7.03;;;;;;;;;;4996248;28;20406;-70
2023/12/28 11:33:46;;;;;;;9.73;6.00;;;;;;;;;;4995197;28;20421;-72
2023/12/28 11:36:19;;;;;;;11.00;5.23;;;;;;;;;;4995376;28;20403;-72
2023/12/28 11:38:45;;;;;;;9.97;5.70;;;;;;;;;;4995263;28;20424;-72
2023/12/28 11:41:16;;;;;;;12.47;5.60;;;;;;;;;;4995344;28;20411;-71
2023/12/28 11:43:42;;;;;;;9.13;5.53;;;;;;;;;;4995128;28;20442;-71
2023/12/28 11:46:08;;;;;;;16.30;6.20;;;;;;;;;;4994943;28;20427;-72
2023/12/28 11:48:35;;;;;;;12.37;5.33;;;;;;;;;;4995995;28;20486;-73
2023/12/28 11:51:02;;;;;;;12.80;6.00;;;;;;;;;;4997323;28;20406;-73
2023/12/28 11:53:28;;;;;;;12.80;5.67;;;;;;;;;;4996942;28;20407;-73
2023/12/28 11:56:01;;;;;;;9.43;4.70;;;;;;;;;;4997495;28;20525;-73
2023/12/28 11:58:27;;;;;;;12.13;5.27;;;;;;;;;;5000959;28;20584;-72
2023/12/28 12:00:53;;;;;;;10.97;5.70;;;;;;;;;;4999905;28;20930;-73
2023/12/28 12:03:19;;;;;;;9.50;6.27;;;;;;;;;;5001365;28;20622;-71
2023/12/28 12:05:45;;;;;;;15.13;6.60;;;;;;;;;;5010776;28;20435;-72
2023/12/28 12:08:14;;;;;;;10.03;5.40;;;;;;;;;;4994766;28;20426;-72
2023/12/28 12:10:41;;;;;;;11.10;5.30;;;;;;;;;;4994901;28;20407;-71
2023/12/28 12:13:07;;;;;;;10.23;5.47;;;;;;;;;;4995245;28;20442;-73
2023/12/28 12:15:34;;;;;;;9.63;5.60;;;;;;;;;;5009223;23;20668;-73
2023/12/28 12:18:01;;;;;;;7.70;5.10;;;;;;;;;;4975014;28;20420;-74
2023/12/28 12:20:29;;;;;;;9.07;4.50;;;;;;;;;;4974724;28;20408;-76
2023/12/28 12:22:57;;;;;;;9.37;4.63;;;;;;;;;;4975373;28;20475;-76
2023/12/28 12:25:23;;;;;;;5.30;3.80;;;;;;;;;;4990023;28;20845;-76
2023/12/28 12:27:50;;;;;;;9.33;4.23;;;;;;;;;;4993882;28;20407;-75
2023/12/28 12:30:16;;;;;;;8.10;3.53;;;;;;;;;;4994064;28;20853;-76
2023/12/28 12:32:42;;;;;;;6.93;3.23;;;;;;;;;;5009391;28;20785;-74
2023/12/28 12:35:10;;;;;;;5.83;3.17;;;;;;;;;;4994105;28;20842;-75
2023/12/28 12:37:37;;;;;;;7.70;2.97;;;;;;;;;;5008935;28;20565;-76
2023/12/28 12:40:03;;;;;;;10.83;3.50;;;;;;;;;;4993810;28;20926;-74
2023/12/28 12:42:29;;;;;;;5.93;2.97;;;;;;;;;;4987014;28;20423;-76
2023/12/28 12:44:55;;;;;;;4.70;2.70;;;;;;;;;;4979119;28;20443;-74
2023/12/28 12:47:21;;;;;;;7.30;3.83;;;;;;;;;;5008647;28;20427;-74
2023/12/28 12:49:47;;;;;;;4.30;3.00;;;;;;;;;;4993370;28;20550;-76
2023/12/28 12:52:13;;;;;;;7.20;3.10;;;;;;;;;;5008273;28;20451;-76
2023/12/28 12:54:39;;;;;;;3.83;2.70;;;;;;;;;;4993236;28;20975;-76
2023/12/28 12:57:06;;;;;;;4.60;2.80;;;;;;;;;;4993421;28;20498;-76
2023/12/28 12:59:32;;;;;;;5.33;2.97;;;;;;;;;;4993958;28;20423;-76
2023/12/28 13:01:58;;;;;;;7.70;2.67;;;;;;;;;;4993323;28;20795;-76
2023/12/28 13:04:24;;;;;;;4.90;2.87;;;;;;;;;;4993283;28;20470;-75
2023/12/28 13:06:50;;;;;;;4.17;2.43;;;;;;;;;;5008477;28;20902;-74
2023/12/28 13:09:16;;;;;;;5.53;3.27;;;;;;;;;;4992992;28;20957;-74
2023/12/28 13:11:42;;;;;;;3.30;2.63;;;;;;;;;;5008260;28;20434;-75
2023/12/28 13:14:08;;;;;;;3.77;2.90;;;;;;;;;;4992999;28;20453;-74
2023/12/28 13:16:34;;;;;;;12.93;5.80;;;;;;;;;;4993051;28;20427;-74
2023/12/28 13:19:00;;;;;;;14.50;6.10;;;;;;;;;;5008108;28;20427;-75
2023/12/28 13:21:26;;;;;;;10.77;5.97;;;;;;;;;;4993038;28;20415;-74
2023/12/28 13:23:51;;;;;;;11.70;4.80;;;;;;;;;;5008013;28;20519;-74
2023/12/28 13:26:17;;;;;;;9.13;4.63;;;;;;;;;;4992617;28;20470;-75
2023/12/28 13:28:43;;;;;;;8.97;4.33;;;;;;;;;;4992938;28;20455;-74
2023/12/28 13:31:09;;;;;;;10.50;5.33;;;;;;;;;;4993414;28;20407;-75
2023/12/28 13:33:35;;;;;;;15.83;6.47;;;;;;;;;;4992740;28;20438;-74
2023/12/28 13:36:02;;;;;;;9.13;5.60;;;;;;;;;;5008763;28;20974;-74
2023/12/28 13:38:28;;;;;;;8.77;5.83;;;;;;;;;;4992749;28;20403;-74
2023/12/28 13:40:55;;;;;;;16.67;7.33;;;;;;;;;;4992718;28;20776;-74
2023/12/28 13:43:21;;;;;;;13.77;7.37;;;;;;;;;;4992456;28;20725;-74
2023/12/28 13:45:47;;;;;;;13.27;8.20;;;;;;;;;;4992558;28;20434;-75
2023/12/28 13:48:13;;;;;;;13.30;7.73;;;;;;;;;;4992639;28;20898;-75
2023/12/28 13:50:39;;;;;;;11.63;6.67;;;;;;;;;;4992527;28;20419;-75
2023/12/28 13:53:07;;;;;;;16.47;7.13;;;;;;;;;;4992094;28;20407;-75
2023/12/28 13:55:33;;;;;;;11.03;5.87;;;;;;;;;;4992336;28;20867;-75
2023/12/28 13:57:59;;;;;;;13.03;5.87;;;;;;;;;;4992609;28;20506;-75
2023/12/28 14:00:25;;;;;;;10.00;4.30;;;;;;;;;;5007593;28;20476;-75
2023/12/28 14:02:52;;;;;;;14.03;6.90;;;;;;;;;;4992316;28;20419;-75
2023/12/28 14:05:19;;;;;;;10.20;6.30;;;;;;;;;;4992593;28;20968;-74
2023/12/28 14:07:45;;;;;;;10.20;5.73;;;;;;;;;;4992413;28;20430;-74
2023/12/28 14:10:11;;;;;;;6.27;4.53;;;;;;;;;;4992448;28;20901;-74
2023/12/28 14:12:37;;;;;;;10.77;5.30;;;;;;;;;;4994602;28;20414;-74
2023/12/28 14:15:03;;;;;;;11.77;5.80;;;;;;;;;;5001856;28;20469;-74
2023/12/28 14:17:30;;;;;;;8.83;5.27;;;;;;;;;;5015696;28;20411;-74
2023/12/28 14:19:56;;;;;;;7.77;4.33;;;;;;;;;;5014226;28;20410;-74
2023/12/28 14:22:22;;;;;;;15.43;4.50;;;;;;;;;;5004821;28;20411;-74
2023/12/28 14:24:48;;;;;;;5.50;3.17;;;;;;;;;;5008954;28;20635;-74
2023/12/28 14:27:14;;;;;;;8.93;4.07;;;;;;;;;;5012852;28;20411;-74
2023/12/28 14:29:40;;;;;;;5.07;3.10;;;;;;;;;;5001271;28;21004;-74
2023/12/28 14:32:07;;;;;;;4.90;2.90;;;;;;;;;;4997280;28;20911;-76
2023/12/28 14:34:33;;;;;;;6.90;3.57;;;;;;;;;;4996924;28;21001;-75
2023/12/28 14:36:59;;;;;;;4.00;3.10;;;;;;;;;;4996455;28;20453;-75
2023/12/28 14:39:25;;;;;;;3.50;2.60;;;;;;;;;;4996209;28;20418;-74
2023/12/28 14:41:51;;;;;;;3.30;2.10;;;;;;;;;;4995814;28;20413;-73
2023/12/28 14:44:17;;;;;;;9.53;2.97;;;;;;;;;;4995603;28;20433;-73
2023/12/28 14:46:43;;;;;;;4.77;2.63;;;;;;;;;;4995859;28;20473;-74
2023/12/28 14:49:08;;;;;;;3.00;2.67;;;;;;;;;;4995947;28;20458;-73
2023/12/28 14:51:34;;;;;;;3.10;2.10;;;;;;;;;;4996393;28;20494;-73
2023/12/28 14:54:00;;;;;;;6.13;2.67;;;;;;;;;;4995695;28;20421;-74
2023/12/28 14:56:26;;;;;;;3.57;2.70;;;;;;;;;;4995550;28;20489;-74
2023/12/28 14:58:52;;;;;;;3.93;2.60;;;;;;;;;;4995928;28;20453;-73
2023/12/28 15:01:22;;;;;;;6.70;2.33;;;;;;;;;;4995620;28;20430;-73
2023/12/28 15:03:48;;;;;;;5.50;3.20;;;;;;;;;;4995554;28;20413;-73
2023/12/28 15:06:14;;;;;;;5.30;2.60;;;;;;;;;;4995520;28;20426;-73
2023/12/28 15:08:40;;;;;;;2.77;2.20;;;;;;;;;;4995807;28;20461;-73
2023/12/28 15:11:09;;;;;;;10.60;4.27;;;;;;;;;;4995775;28;20419;-73
2023/12/28 15:13:36;;;;;;;13.20;6.57;;;;;;;;;;5010776;28;20446;-74
2023/12/28 15:16:03;;;;;;;9.90;4.90;;;;;;;;;;4995780;28;20446;-74
2023/12/28 15:18:29;;;;;;;8.37;3.83;;;;;;;;;;4997665;28;20415;-75
2023/12/28 15:20:55;;;;;;;8.97;3.73;;;;;;;;;;4996505;28;20419;-75
2023/12/28 15:23:22;;;;;;;5.67;3.50;;;;;;;;;;4995988;28;20415;-74
2023/12/28 15:25:48;;;;;;;13.43;3.77;;;;;;;;;;4996790;28;20463;-75
2023/12/28 15:28:15;;;;;;;6.40;3.07;;;;;;;;;;4995432;28;20407;-75
2023/12/28 15:30:41;;;;;;;5.80;3.10;;;;;;;;;;4997518;28;20944;-75
2023/12/28 15:33:07;;;;;;;5.73;3.67;;;;;;;;;;5009637;28;20410;-74
2023/12/28 15:35:33;;;;;;;4.80;3.23;;;;;;;;;;4996239;28;20918;-74
2023/12/28 15:37:58;;;;;;;5.07;3.77;;;;;;;;;;4995201;28;20426;-74
2023/12/28 15:40:24;;;;;;;8.50;3.60;;;;;;;;;;4995014;28;20415;-74
2023/12/28 15:42:51;;;;;;;5.30;3.37;;;;;;;;;;4994784;28;20411;-74
2023/12/28 15:45:17;;;;;;;4.90;3.63;;;;;;;;;;4996730;28;20515;-74
2023/12/28 15:47:43;;;;;;;10.83;3.70;;;;;;;;;;5008296;28;20785;-74
2023/12/28 15:50:08;;;;;;;8.50;5.37;;;;;;;;;;5010057;28;20463;-74
2023/12/28 15:52:34;;;;;;;8.07;4.80;;;;;;;;;;4994785;28;20821;-74
2023/12/28 15:55:00;;;;;;;9.70;4.57;;;;;;;;;;4994845;28;20466;-74
2023/12/28 15:57:26;;;;;;;9.97;5.07;;;;;;;;;;4994758;28;20489;-74
2023/12/28 15:59:57;;;;;;;13.33;4.47;;;;;;;;;;4999907;28;20415;-74
2023/12/28 16:02:24;;;;;;;14.93;3.97;;;;;;;;;;5002460;28;20942;-75
2023/12/28 16:04:50;;;;;;;7.70;3.80;;;;;;;;;;4994727;28;20442;-73
2023/12/28 16:07:16;;;;;;;5.80;3.20;;;;;;;;;;4994096;28;20419;-73
2023/12/28 16:09:42;;;;;;;5.50;3.20;;;;;;;;;;4994055;28;20549;-72
2023/12/28 16:12:08;;;;;;;11.47;3.90;;;;;;;;;;5009601;28;20984;-76
2023/12/28 16:14:37;;;;;;;6.60;4.03;;;;;;;;;;4993939;28;20450;-74
2023/12/28 16:17:04;;;;;;;4.60;3.60;;;;;;;;;;4993984;28;20415;-74
2023/12/28 16:19:30;;;;;;;11.13;4.13;;;;;;;;;;4994500;28;20415;-73
2023/12/28 16:21:56;;;;;;;5.53;3.87;;;;;;;;;;4994622;28;20407;-74
2023/12/28 16:24:22;;;;;;;9.53;4.83;;;;;;;;;;5019126;28;20418;-74
2023/12/28 16:26:48;;;;;;;4.87;3.70;;;;;;;;;;5001933;28;20800;-74
2023/12/28 16:29:14;;;;;;;7.87;4.50;;;;;;;;;;4994043;28;20454;-74
2023/12/28 16:31:40;;;;;;;3.70;3.47;;;;;;;;;;4994850;28;20494;-74
2023/12/28 16:34:06;;;;;;;8.60;4.40;;;;;;;;;;5008304;28;20509;-74
2023/12/28 16:36:33;;;;;;;8.57;4.00;;;;;;;;;;4993518;28;20422;-74
2023/12/28 16:39:00;;;;;;;8.57;4.90;;;;;;;;;;5008938;28;20435;-74
2023/12/28 16:41:30;;;;;;;8.83;4.07;;;;;;;;;;4993581;28;20412;-74
2023/12/28 16:43:56;;;;;;;7.70;3.30;;;;;;;;;;5008313;28;20427;-74
2023/12/28 16:46:22;;;;;;;8.50;3.47;;;;;;;;;;5008747;28;20458;-74
2023/12/28 16:48:48;;;;;;;5.60;3.50;;;;;;;;;;5008765;28;20466;-74
2023/12/28 16:51:14;;;;;;;4.50;3.10;;;;;;;;;;4983765;28;20530;-74
2023/12/28 16:53:40;;;;;;;6.77;3.20;;;;;;;;;;4972820;28;20447;-74
2023/12/28 16:56:06;;;;;;;4.93;3.20;;;;;;;;;;4973979;28;20515;-75
2023/12/28 16:58:32;;;;;;;10.67;4.53;;;;;;;;;;4972237;28;21082;-74
2023/12/28 17:00:58;;;;;;;4.77;3.60;;;;;;;;;;4972435;28;20451;-74
2023/12/28 17:03:24;;;;;;;4.93;3.40;;;;;;;;;;4974111;28;20920;-74
2023/12/28 17:05:50;;;;;;;6.63;3.80;;;;;;;;;;4973148;28;20951;-74
2023/12/28 17:08:16;;;;;;;5.37;4.10;;;;;;;;;;4973022;28;20426;-74
2023/12/28 17:10:42;;;;;;;11.37;5.83;;;;;;;;;;4973156;28;20538;-74
2023/12/28 17:13:09;;;;;;;11.60;5.97;;;;;;;;;;4974159;28;20437;-74
2023/12/28 17:15:37;;;;;;;10.70;6.50;;;;;;;;;;4973910;28;20462;-74
2023/12/28 17:18:07;;;;;;;11.20;5.80;;;;;;;;;;4973961;28;20420;-74
2023/12/28 17:20:33;;;;;;;11.30;5.37;;;;;;;;;;4972580;28;20491;-74
2023/12/28 17:23:23;;;;;;;9.23;5.00;;;;;;;;;;4973388;28;20970;-75
2023/12/28 17:25:54;;;;;;;7.37;3.57;;;;;;;;;;4972401;28;20811;-74
2023/12/28 17:28:21;;;;;;;4.53;3.20;;;;;;;;;;4971984;28;20416;-74
2023/12/28 17:30:47;;;;;;;6.20;3.60;;;;;;;;;;4976945;28;20414;-74
2023/12/28 17:33:13;;;;;;;5.30;3.77;;;;;;;;;;4988180;28;20435;-74
2023/12/28 17:35:39;;;;;;;16.10;5.37;;;;;;;;;;4988077;28;20443;-74
2023/12/28 17:38:06;;;;;;;7.87;4.33;;;;;;;;;;4988539;28;20416;-74
2023/12/28 17:40:32;;;;;;;6.13;4.00;;;;;;;;;;4976584;28;20423;-74
2023/12/28 17:43:00;;;;;;;9.53;5.17;;;;;;;;;;4974175;28;20965;-74
2023/12/28 17:45:37;;;;;;;12.90;6.20;;;;;;;;;;4973354;28;20467;-74
2023/12/28 17:48:06;;;;;;;7.67;4.27;;;;;;;;;;4972964;28;20443;-74
2023/12/28 17:50:37;;;;;;;8.50;3.50;;;;;;;;;;4973984;28;20470;-74
2023/12/28 17:53:09;;;;;;;6.33;3.77;;;;;;;;;;4973741;28;20408;-75
2023/12/28 17:55:35;;;;;;;4.70;3.23;;;;;;;;;;4973729;28;20874;-74
2023/12/28 17:58:01;;;;;;;14.03;6.40;;;;;;;;;;4973761;28;20421;-75
2023/12/28 18:00:27;;;;;;;20.20;7.80;;;;;;;;;;4973567;28;20510;-75
2023/12/28 18:02:53;;;;;;;14.37;7.77;;;;;;;;;;4971645;28;20725;-75
2023/12/28 18:05:19;;;;;;;9.23;5.50;;;;;;;;;;4973317;28;20466;-76
2023/12/28 18:07:45;;;;;;;13.03;6.30;;;;;;;;;;4973512;28;20412;-75
2023/12/28 18:10:11;;;;;;;34.00;11.87;;;;;;;;;;4972345;28;20490;-75
2023/12/28 18:12:37;;;;;;;27.60;10.90;;;;;;;;;;4973409;28;20775;-75
2023/12/28 18:15:04;;;;;;;16.50;6.87;;;;;;;;;;4994176;23;20530;-73
2023/12/28 18:17:30;;;;;;;11.80;6.27;;;;;;;;;;4972923;28;20423;-73
2023/12/28 18:19:56;;;;;;;11.33;5.70;;;;;;;;;;4971164;28;20502;-73
2023/12/28 18:22:22;;;;;;;14.90;6.63;;;;;;;;;;4972687;28;20950;-72
2023/12/28 18:24:49;;;;;;;12.87;6.40;;;;;;;;;;4972799;28;20527;-72
2023/12/28 18:27:15;;;;;;;7.00;4.40;;;;;;;;;;4972812;28;20407;-73
2023/12/28 18:29:41;;;;;;;5.83;4.03;;;;;;;;;;4972887;28;20485;-73
2023/12/28 18:32:07;;;;;;;5.60;3.73;;;;;;;;;;4972547;28;20499;-73
2023/12/28 18:34:33;;;;;;;5.00;3.43;;;;;;;;;;4972854;28;20495;-73
2023/12/28 18:37:02;;;;;;;5.07;3.80;;;;;;;;;;4988251;28;20416;-73
2023/12/28 18:39:30;;;;;;;6.97;4.27;;;;;;;;;;4972782;28;20416;-73
2023/12/28 18:41:56;;;;;;;6.87;4.20;;;;;;;;;;4973165;28;20771;-73
2023/12/28 18:44:22;;;;;;;6.13;4.10;;;;;;;;;;4976757;28;20467;-72
2023/12/28 18:46:48;;;;;;;8.57;4.90;;;;;;;;;;4991261;28;20408;-72
2023/12/28 18:49:13;;;;;;;5.83;4.00;;;;;;;;;;4988267;28;20494;-73
2023/12/28 18:51:40;;;;;;;5.50;3.57;;;;;;;;;;4984361;28;20427;-72
2023/12/28 18:54:05;;;;;;;6.93;3.80;;;;;;;;;;4984016;28;20842;-71
2023/12/28 18:56:31;;;;;;;6.97;3.90;;;;;;;;;;4988185;28;20408;-72
2023/12/28 18:58:57;;;;;;;4.20;2.90;;;;;;;;;;5004846;28;20794;-72
2023/12/28 19:01:23;;;;;;;4.47;3.33;;;;;;;;;;4992262;28;20416;-74
2023/12/28 19:03:49;;;;;;;4.73;2.80;;;;;;;;;;4993460;28;20412;-72
2023/12/28 19:06:15;;;;;;;6.77;3.30;;;;;;;;;;4994255;28;20571;-73
2023/12/28 19:08:42;;;;;;;10.73;4.23;;;;;;;;;;4989346;28;20440;-72
2023/12/28 19:11:15;;;;;;;6.97;3.97;;;;;;;;;;4976260;28;20426;-73
2023/12/28 19:13:42;;;;;;;7.30;3.90;;;;;;;;;;4975863;28;20775;-72
2023/12/28 19:16:15;;;;;;;6.70;3.90;;;;;;;;;;4975848;28;20453;-73
2023/12/28 19:18:41;;;;;;;7.27;3.60;;;;;;;;;;4976230;28;20422;-72
2023/12/28 19:21:07;;;;;;;8.03;4.50;;;;;;;;;;4975834;28;20404;-73
2023/12/28 19:23:33;;;;;;;7.53;4.17;;;;;;;;;;4975940;28;20439;-72
2023/12/28 19:25:59;;;;;;;5.30;3.80;;;;;;;;;;4983113;28;20791;-72
2023/12/28 19:28:25;;;;;;;5.83;4.10;;;;;;;;;;4999207;28;21002;-72
2023/12/28 19:30:51;;;;;;;9.43;4.90;;;;;;;;;;4977322;28;20914;-72
2023/12/28 19:33:16;;;;;;;11.67;4.97;;;;;;;;;;4977280;28;20452;-73
2023/12/28 19:35:42;;;;;;;11.20;5.30;;;;;;;;;;4977114;28;20443;-73
2023/12/28 19:38:08;;;;;;;8.90;4.43;;;;;;;;;;4978018;28;20899;-71
2023/12/28 19:40:34;;;;;;;8.63;4.43;;;;;;;;;;4977945;28;20416;-73
2023/12/28 19:43:00;;;;;;;6.10;4.30;;;;;;;;;;4975101;28;20415;-73
2023/12/28 19:45:26;;;;;;;6.77;3.53;;;;;;;;;;4975935;28;20934;-72
2023/12/28 19:47:52;;;;;;;7.60;3.33;;;;;;;;;;4975394;28;20872;-71
2023/12/28 19:50:18;;;;;;;4.90;3.30;;;;;;;;;;4975236;28;20462;-70
2023/12/28 19:52:44;;;;;;;5.90;3.80;;;;;;;;;;4975089;28;20444;-70
2023/12/28 19:55:10;;;;;;;4.53;3.70;;;;;;;;;;4975513;28;20850;-71
2023/12/28 19:57:36;;;;;;;5.70;3.80;;;;;;;;;;4975191;28;20895;-71
2023/12/28 20:00:03;;;;;;;5.30;3.80;;;;;;;;;;4975095;28;20422;-71
2023/12/28 20:02:31;;;;;;;7.77;4.17;;;;;;;;;;4975075;28;20427;-71
2023/12/28 20:04:57;;;;;;;4.80;3.53;;;;;;;;;;4974797;28;20454;-71
2023/12/28 20:07:23;;;;;;;5.60;3.00;;;;;;;;;;4975057;28;20408;-71
2023/12/28 20:09:49;;;;;;;5.70;3.47;;;;;;;;;;4974716;28;20558;-71
2023/12/28 20:12:16;;;;;;;5.37;3.33;;;;;;;;;;4974608;28;20416;-71
2023/12/28 20:14:43;;;;;;;10.37;5.40;;;;;;;;;;4974660;28;20416;-71
2023/12/28 20:17:09;;;;;;;9.50;5.23;;;;;;;;;;4975003;28;20423;-71
2023/12/28 20:19:35;;;;;;;4.87;3.70;;;;;;;;;;4974738;28;20412;-71
2023/12/28 20:22:01;;;;;;;6.50;3.53;;;;;;;;;;4974398;28;20491;-71
2023/12/28 20:24:28;;;;;;;6.27;3.80;;;;;;;;;;4974452;28;20507;-71
2023/12/28 20:26:57;;;;;;;4.87;3.30;;;;;;;;;;4974530;28;20976;-71
2023/12/28 20:29:23;;;;;;;4.87;3.70;;;;;;;;;;4974217;28;20463;-71
2023/12/28 20:31:50;;;;;;;9.00;4.47;;;;;;;;;;4974513;28;20422;-71